createdAt,value
2022-10-18T00:00:27.564Z,27.39
2022-10-18T00:01:27.562Z,27.39
2022-10-18T00:02:27.586Z,27.45
2022-10-18T00:03:27.543Z,27.45
2022-10-18T00:04:27.556Z,27.45
2022-10-18T00:05:27.512Z,27.45
2022-10-18T00:06:27.503Z,27.39
2022-10-18T00:07:27.602Z,27.45
2022-10-18T00:08:27.474Z,27.39
2022-10-18T00:09:27.476Z,27.45
2022-10-18T00:10:27.482Z,26.80
2022-10-18T00:11:27.424Z,27.39
2022-10-18T00:12:27.426Z,27.45
2022-10-18T00:13:27.397Z,27.39
2022-10-18T00:14:27.416Z,27.39
2022-10-18T00:15:27.385Z,27.45
2022-10-18T00:16:27.364Z,28.79
2022-10-18T00:17:27.465Z,27.45
2022-10-18T00:18:27.348Z,27.39
2022-10-18T00:19:29.247Z,27.39
2022-10-18T00:20:27.334Z,27.39
2022-10-18T00:21:27.291Z,27.34
2022-10-18T00:22:27.391Z,27.45
2022-10-18T00:23:27.271Z,26.80
2022-10-18T00:24:27.279Z,27.39
2022-10-18T00:25:27.245Z,27.39
2022-10-18T00:26:27.227Z,27.39
2022-10-18T00:27:27.225Z,27.39
2022-10-18T00:28:27.248Z,27.45
2022-10-18T00:29:27.196Z,27.39
2022-10-18T00:30:27.186Z,27.34
2022-10-18T00:31:27.162Z,27.50
2022-10-18T00:32:27.186Z,27.39
2022-10-18T00:33:27.145Z,27.45
2022-10-18T00:34:27.157Z,27.39
2022-10-18T00:35:27.107Z,27.39
2022-10-18T00:36:27.113Z,27.39
2022-10-18T00:37:27.077Z,27.45
2022-10-18T00:38:27.075Z,27.45
2022-10-18T00:39:27.066Z,27.39
2022-10-18T00:40:27.045Z,27.39
2022-10-18T00:41:27.058Z,27.34
2022-10-18T00:42:27.039Z,27.39
2022-10-18T00:43:26.995Z,27.45
2022-10-18T00:44:27.012Z,27.39
2022-10-18T00:45:26.972Z,27.45
2022-10-18T00:46:26.953Z,27.45
2022-10-18T00:47:26.944Z,27.39
2022-10-18T00:48:26.943Z,27.39
2022-10-18T00:49:26.933Z,27.45
2022-10-18T00:50:26.922Z,27.39
2022-10-18T00:51:26.895Z,27.45
2022-10-18T00:52:26.898Z,27.45
2022-10-18T00:53:26.876Z,27.39
2022-10-18T00:54:26.894Z,27.45
2022-10-18T00:55:26.856Z,27.45
2022-10-18T00:56:26.833Z,27.39
2022-10-18T00:57:26.822Z,27.45
2022-10-18T00:58:26.806Z,27.39
2022-10-18T00:59:26.805Z,27.45
2022-10-18T01:00:26.782Z,27.45
2022-10-18T01:01:28.438Z,27.39
2022-10-18T01:02:26.754Z,27.45
2022-10-18T01:03:26.745Z,27.45
2022-10-18T01:04:26.733Z,27.39
2022-10-18T01:05:26.734Z,27.39
2022-10-18T01:06:26.688Z,27.39
2022-10-18T01:07:26.708Z,27.45
2022-10-18T01:08:26.753Z,27.39
2022-10-18T01:09:26.643Z,27.45
2022-10-18T01:10:26.653Z,27.39
2022-10-18T01:11:26.639Z,27.39
2022-10-18T01:12:26.645Z,27.45
2022-10-18T01:13:26.630Z,27.45
2022-10-18T01:14:26.583Z,27.45
2022-10-18T01:15:26.588Z,27.45
2022-10-18T01:16:26.573Z,27.39
2022-10-18T01:17:26.551Z,27.39
2022-10-18T01:18:26.553Z,27.39
2022-10-18T01:19:26.515Z,27.45
2022-10-18T01:20:26.505Z,27.39
2022-10-18T01:21:26.494Z,27.45
2022-10-18T01:22:26.484Z,27.45
2022-10-18T01:23:26.484Z,26.86
2022-10-18T01:24:26.462Z,27.39
2022-10-18T01:25:26.454Z,27.39
2022-10-18T01:26:26.423Z,27.39
2022-10-18T01:27:26.409Z,27.45
2022-10-18T01:28:26.431Z,27.39
2022-10-18T01:29:26.374Z,27.39
2022-10-18T01:30:26.362Z,27.39
2022-10-18T01:31:26.356Z,27.39
2022-10-18T01:32:26.344Z,27.39
2022-10-18T01:33:26.335Z,27.39
2022-10-18T01:34:26.322Z,27.39
2022-10-18T01:35:26.293Z,27.39
2022-10-18T01:36:26.285Z,27.45
2022-10-18T01:37:26.266Z,27.39
2022-10-18T01:38:26.295Z,27.45
2022-10-18T01:39:26.240Z,27.39
2022-10-18T01:40:26.237Z,27.45
2022-10-18T01:41:26.234Z,27.45
2022-10-18T01:42:26.204Z,27.39
2022-10-18T01:43:26.209Z,27.39
2022-10-18T01:44:26.173Z,27.39
2022-10-18T01:45:26.163Z,27.45
2022-10-18T01:46:26.154Z,27.45
2022-10-18T01:47:26.133Z,27.39
2022-10-18T01:48:26.143Z,27.39
2022-10-18T01:49:26.102Z,27.39
2022-10-18T01:50:26.120Z,27.39
2022-10-18T01:51:26.079Z,27.45
2022-10-18T01:52:26.065Z,27.45
2022-10-18T01:53:26.065Z,27.39
2022-10-18T01:54:26.043Z,27.45
2022-10-18T01:55:26.032Z,27.39
2022-10-18T01:56:26.022Z,27.39
2022-10-18T01:57:25.994Z,27.45
2022-10-18T01:58:26.010Z,27.45
2022-10-18T01:59:25.971Z,27.45
2022-10-18T02:00:25.974Z,27.45
2022-10-18T02:01:25.944Z,27.45
2022-10-18T02:02:25.961Z,27.45
2022-10-18T02:03:25.924Z,27.39
2022-10-18T02:04:25.918Z,27.39
2022-10-18T02:05:25.906Z,27.39
2022-10-18T02:06:25.890Z,27.39
2022-10-18T02:07:25.871Z,27.45
2022-10-18T02:08:25.898Z,27.45
2022-10-18T02:09:25.841Z,27.45
2022-10-18T02:10:25.830Z,27.39
2022-10-18T02:11:25.820Z,27.39
2022-10-18T02:12:25.821Z,27.39
2022-10-18T02:13:25.812Z,27.39
2022-10-18T02:14:25.795Z,27.45
2022-10-18T02:15:25.785Z,27.39
2022-10-18T02:16:25.770Z,27.45
2022-10-18T02:17:25.791Z,27.39
2022-10-18T02:18:25.791Z,27.45
2022-10-18T02:20:25.724Z,27.39
2022-10-18T02:21:25.739Z,27.45
2022-10-18T02:22:25.752Z,27.39
2022-10-18T02:23:25.713Z,27.45
2022-10-18T02:24:25.699Z,27.45
2022-10-18T02:25:25.646Z,27.88
2022-10-18T02:26:25.631Z,27.39
2022-10-18T02:27:25.627Z,27.39
2022-10-18T02:28:25.656Z,27.39
2022-10-18T02:29:25.600Z,27.45
2022-10-18T02:30:25.601Z,27.45
2022-10-18T02:31:25.571Z,27.39
2022-10-18T02:32:25.575Z,27.45
2022-10-18T02:33:26.749Z,27.39
2022-10-18T02:34:25.521Z,27.45
2022-10-18T02:35:25.530Z,27.39
2022-10-18T02:36:25.550Z,27.39
2022-10-18T02:38:25.543Z,27.39
2022-10-18T02:39:25.460Z,27.45
2022-10-18T02:40:25.484Z,27.39
2022-10-18T02:41:25.450Z,27.39
2022-10-18T02:42:25.500Z,27.39
2022-10-18T02:43:25.426Z,27.45
2022-10-18T02:44:25.441Z,27.39
2022-10-18T02:45:25.431Z,27.45
2022-10-18T02:46:28.377Z,27.45
2022-10-18T02:47:25.380Z,27.45
2022-10-18T02:48:25.388Z,27.39
2022-10-18T02:49:25.390Z,27.39
2022-10-18T02:50:25.354Z,27.39
2022-10-18T02:51:25.366Z,27.55
2022-10-18T02:52:25.308Z,27.45
2022-10-18T02:53:25.366Z,27.12
2022-10-18T02:54:25.272Z,27.45
2022-10-18T02:55:25.304Z,27.45
2022-10-18T02:56:25.263Z,27.39
2022-10-18T02:57:25.240Z,27.39
2022-10-18T02:58:25.293Z,27.39
2022-10-18T02:59:25.253Z,27.39
2022-10-18T03:00:25.213Z,27.45
2022-10-18T03:01:25.246Z,27.39
2022-10-18T03:02:25.191Z,27.39
2022-10-18T03:03:25.211Z,27.39
2022-10-18T03:04:25.209Z,27.39
2022-10-18T03:05:25.171Z,27.45
2022-10-18T03:06:25.158Z,27.39
2022-10-18T03:07:25.179Z,27.39
2022-10-18T03:08:25.181Z,27.45
2022-10-18T03:09:25.133Z,27.45
2022-10-18T03:10:25.106Z,27.39
2022-10-18T03:11:25.139Z,27.39
2022-10-18T03:12:25.114Z,27.39
2022-10-18T03:13:25.201Z,27.39
2022-10-18T03:14:25.014Z,27.39
2022-10-18T03:15:25.014Z,27.39
2022-10-18T03:16:25.030Z,27.39
2022-10-18T03:17:24.986Z,27.39
2022-10-18T03:18:24.970Z,27.45
2022-10-18T03:19:24.968Z,27.39
2022-10-18T03:20:24.990Z,27.39
2022-10-18T03:21:24.959Z,27.39
2022-10-18T03:22:24.978Z,27.45
2022-10-18T03:23:25.001Z,27.61
2022-10-18T03:24:24.921Z,27.39
2022-10-18T03:25:24.840Z,27.39
2022-10-18T03:26:24.840Z,27.39
2022-10-18T03:27:24.839Z,27.39
2022-10-18T03:28:24.863Z,27.77
2022-10-18T03:29:24.800Z,27.39
2022-10-18T03:30:24.791Z,27.34
2022-10-18T03:31:24.846Z,27.39
2022-10-18T03:32:24.779Z,27.45
2022-10-18T03:33:24.783Z,27.45
2022-10-18T03:34:24.785Z,27.45
2022-10-18T03:35:24.722Z,27.45
2022-10-18T03:36:24.703Z,27.34
2022-10-18T03:37:24.724Z,27.39
2022-10-18T03:38:24.692Z,27.45
2022-10-18T03:39:24.661Z,27.45
2022-10-18T03:40:24.673Z,27.39
2022-10-18T03:41:24.709Z,27.39
2022-10-18T03:42:24.673Z,27.45
2022-10-18T03:43:24.700Z,27.39
2022-10-18T03:44:24.615Z,27.39
2022-10-18T03:45:28.873Z,27.39
2022-10-18T03:46:25.580Z,27.39
2022-10-18T03:47:24.549Z,27.45
2022-10-18T03:48:24.557Z,27.45
2022-10-18T03:49:24.585Z,27.45
2022-10-18T03:50:24.519Z,27.39
2022-10-18T03:51:24.537Z,27.39
2022-10-18T03:52:24.491Z,27.34
2022-10-18T03:53:24.509Z,27.39
2022-10-18T03:54:24.469Z,27.39
2022-10-18T03:55:24.473Z,27.45
2022-10-18T03:56:24.468Z,27.45
2022-10-18T03:57:24.459Z,27.39
2022-10-18T03:58:24.493Z,27.39
2022-10-18T03:59:24.446Z,27.39
2022-10-18T04:00:24.396Z,27.45
2022-10-18T04:01:24.439Z,27.45
2022-10-18T04:02:24.354Z,27.39
2022-10-18T04:03:24.347Z,27.39
2022-10-18T04:04:24.328Z,27.45
2022-10-18T04:05:24.340Z,27.39
2022-10-18T04:06:24.309Z,27.39
2022-10-18T04:07:24.327Z,26.53
2022-10-18T04:08:24.270Z,27.39
2022-10-18T04:09:24.271Z,27.39
2022-10-18T04:10:24.267Z,27.39
2022-10-18T04:11:24.223Z,27.39
2022-10-18T04:12:24.220Z,27.45
2022-10-18T04:13:24.220Z,27.39
2022-10-18T04:14:24.190Z,27.39
2022-10-18T04:15:24.232Z,27.82
2022-10-18T04:16:24.229Z,27.45
2022-10-18T04:17:24.157Z,27.45
2022-10-18T04:18:24.129Z,27.39
2022-10-18T04:19:24.120Z,27.39
2022-10-18T04:20:31.643Z,27.77
2022-10-18T04:21:31.622Z,27.39
2022-10-18T04:22:32.650Z,27.34
2022-10-18T04:23:24.061Z,27.39
2022-10-18T04:24:24.020Z,27.39
2022-10-18T04:25:24.018Z,27.39
2022-10-18T04:26:24.000Z,27.45
2022-10-18T04:27:23.999Z,27.39
2022-10-18T04:28:24.037Z,27.39
2022-10-18T04:29:23.967Z,27.39
2022-10-18T04:30:23.951Z,27.45
2022-10-18T04:31:23.938Z,27.39
2022-10-18T04:32:23.927Z,28.14
2022-10-18T04:33:23.920Z,27.45
2022-10-18T04:34:23.901Z,27.39
2022-10-18T04:35:23.879Z,27.39
2022-10-18T04:36:23.890Z,27.39
2022-10-18T04:37:23.905Z,27.39
2022-10-18T04:38:23.889Z,27.39
2022-10-18T04:39:23.828Z,27.82
2022-10-18T04:40:23.827Z,27.39
2022-10-18T04:41:23.853Z,27.77
2022-10-18T04:42:23.801Z,27.82
2022-10-18T04:43:23.767Z,27.82
2022-10-18T04:44:23.782Z,27.39
2022-10-18T04:45:23.749Z,27.45
2022-10-18T04:46:23.739Z,27.45
2022-10-18T04:47:23.737Z,27.77
2022-10-18T04:48:23.713Z,27.39
2022-10-18T04:49:23.718Z,27.45
2022-10-18T04:50:23.680Z,27.39
2022-10-18T04:51:23.680Z,27.39
2022-10-18T04:52:23.658Z,27.45
2022-10-18T04:53:23.641Z,27.82
2022-10-18T04:54:26.480Z,27.82
2022-10-18T04:55:24.618Z,27.77
2022-10-18T04:56:23.614Z,27.39
2022-10-18T04:57:23.596Z,27.45
2022-10-18T04:58:23.567Z,27.77
2022-10-18T04:59:23.599Z,27.39
2022-10-18T05:00:23.591Z,27.34
2022-10-18T05:01:23.605Z,27.39
2022-10-18T05:02:23.529Z,27.88
2022-10-18T05:03:23.527Z,27.39
2022-10-18T05:04:23.529Z,27.45
2022-10-18T05:05:27.046Z,27.82
2022-10-18T05:06:24.479Z,27.82
2022-10-18T05:07:23.450Z,27.39
2022-10-18T05:08:23.427Z,27.77
2022-10-18T05:09:23.448Z,27.45
2022-10-18T05:10:23.410Z,27.39
2022-10-18T05:11:23.417Z,27.45
2022-10-18T05:12:23.407Z,27.39
2022-10-18T05:13:23.369Z,27.50
2022-10-18T05:14:23.386Z,27.39
2022-10-18T05:15:23.349Z,27.39
2022-10-18T05:16:23.356Z,27.39
2022-10-18T05:17:23.317Z,27.71
2022-10-18T05:18:23.297Z,27.82
2022-10-18T05:19:23.307Z,27.82
2022-10-18T05:20:23.311Z,28.14
2022-10-18T05:21:23.278Z,27.61
2022-10-18T05:22:23.260Z,27.82
2022-10-18T05:23:23.237Z,27.45
2022-10-18T05:24:26.877Z,27.82
2022-10-18T05:25:23.226Z,27.39
2022-10-18T05:26:23.192Z,27.82
2022-10-18T05:27:23.188Z,27.77
2022-10-18T05:28:40.178Z,27.77
2022-10-18T05:29:24.359Z,27.82
2022-10-18T05:30:23.140Z,27.82
2022-10-18T05:31:23.126Z,27.39
2022-10-18T05:32:23.110Z,27.45
2022-10-18T05:33:23.098Z,27.45
2022-10-18T05:34:23.131Z,27.34
2022-10-18T05:35:23.104Z,27.77
2022-10-18T05:36:23.065Z,27.45
2022-10-18T05:37:27.553Z,27.39
2022-10-18T05:38:24.100Z,27.93
2022-10-18T05:39:23.067Z,27.45
2022-10-18T05:40:23.038Z,27.45
2022-10-18T05:41:23.020Z,27.39
2022-10-18T05:42:23.005Z,27.82
2022-10-18T05:43:23.026Z,27.45
2022-10-18T05:44:22.988Z,27.66
2022-10-18T05:45:22.967Z,27.82
2022-10-18T05:46:22.946Z,27.82
2022-10-18T05:47:23.065Z,27.39
2022-10-18T05:48:22.942Z,27.82
2022-10-18T05:49:22.935Z,27.77
2022-10-18T05:50:22.920Z,27.77
2022-10-18T05:51:22.929Z,27.77
2022-10-18T05:52:22.877Z,27.77
2022-10-18T05:53:36.240Z,27.82
2022-10-18T05:54:23.888Z,27.77
2022-10-18T05:55:22.881Z,27.77
2022-10-18T05:56:22.913Z,27.82
2022-10-18T05:57:22.808Z,27.39
2022-10-18T05:58:22.806Z,27.77
2022-10-18T05:59:22.818Z,27.82
2022-10-18T06:00:22.777Z,27.82
2022-10-18T06:01:22.744Z,27.82
2022-10-18T06:02:22.777Z,27.77
2022-10-18T06:03:22.726Z,27.77
2022-10-18T06:04:22.757Z,27.82
2022-10-18T06:05:22.689Z,27.77
2022-10-18T06:06:22.694Z,27.77
2022-10-18T06:07:22.664Z,27.77
2022-10-18T06:08:22.672Z,27.45
2022-10-18T06:09:22.665Z,27.77
2022-10-18T06:10:22.626Z,27.93
2022-10-18T06:11:22.621Z,27.77
2022-10-18T06:12:22.614Z,27.82
2022-10-18T06:13:22.655Z,27.39
2022-10-18T06:14:22.606Z,27.82
2022-10-18T06:15:22.557Z,27.77
2022-10-18T06:16:22.634Z,27.88
2022-10-18T06:17:22.577Z,27.77
2022-10-18T06:18:22.530Z,27.77
2022-10-18T06:19:22.545Z,27.77
2022-10-18T06:20:22.538Z,27.82
2022-10-18T06:21:22.527Z,27.39
2022-10-18T06:22:22.547Z,27.77
2022-10-18T06:23:22.485Z,27.77
2022-10-18T06:24:22.546Z,27.77
2022-10-18T06:25:22.513Z,27.77
2022-10-18T06:26:22.421Z,27.82
2022-10-18T06:27:22.388Z,27.77
2022-10-18T06:28:22.403Z,27.82
2022-10-18T06:29:22.384Z,27.82
2022-10-18T06:30:22.374Z,27.77
2022-10-18T06:31:22.342Z,27.77
2022-10-18T06:32:22.346Z,27.82
2022-10-18T06:33:22.329Z,27.77
2022-10-18T06:34:22.334Z,27.82
2022-10-18T06:35:22.343Z,27.82
2022-10-18T06:36:22.314Z,27.82
2022-10-18T06:37:22.263Z,27.77
2022-10-18T06:38:22.252Z,27.55
2022-10-18T06:39:22.274Z,27.77
2022-10-18T06:40:22.227Z,27.82
2022-10-18T06:41:22.213Z,27.82
2022-10-18T06:42:22.762Z,27.82
2022-10-18T06:43:22.220Z,27.82
2022-10-18T06:44:22.525Z,27.82
2022-10-18T06:45:22.255Z,27.82
2022-10-18T06:46:22.198Z,27.82
2022-10-18T06:47:22.136Z,27.82
2022-10-18T06:48:22.271Z,27.82
2022-10-18T06:49:22.152Z,27.82
2022-10-18T06:50:22.169Z,27.82
2022-10-18T06:51:22.095Z,27.82
2022-10-18T06:52:22.073Z,27.77
2022-10-18T06:53:22.076Z,27.77
2022-10-18T06:54:22.088Z,27.77
2022-10-18T06:55:22.046Z,27.77
2022-10-18T06:56:22.044Z,27.77
2022-10-18T06:57:22.019Z,27.77
2022-10-18T06:58:21.976Z,27.77
2022-10-18T06:59:22.907Z,27.77
2022-10-18T07:00:21.938Z,27.82
2022-10-18T07:01:21.976Z,27.77
2022-10-18T07:02:21.956Z,27.82
2022-10-18T07:03:21.897Z,27.82
2022-10-18T07:04:21.926Z,27.82
2022-10-18T07:05:21.914Z,27.82
2022-10-18T07:06:21.856Z,27.77
2022-10-18T07:07:21.884Z,27.50
2022-10-18T07:08:21.852Z,27.88
2022-10-18T07:09:21.835Z,27.77
2022-10-18T07:10:21.845Z,27.82
2022-10-18T07:11:21.831Z,27.77
2022-10-18T07:12:21.798Z,27.82
2022-10-18T07:13:32.296Z,27.82
2022-10-18T07:14:26.906Z,27.82
2022-10-18T07:15:22.812Z,27.77
2022-10-18T07:16:21.768Z,27.77
2022-10-18T07:17:21.766Z,27.55
2022-10-18T07:18:21.728Z,27.88
2022-10-18T07:19:21.758Z,27.77
2022-10-18T07:20:21.769Z,27.82
2022-10-18T07:21:21.695Z,27.82
2022-10-18T07:22:21.686Z,27.77
2022-10-18T07:23:21.705Z,27.77
2022-10-18T07:24:21.727Z,27.82
2022-10-18T07:25:21.859Z,27.77
2022-10-18T07:26:21.684Z,27.77
2022-10-18T07:27:21.637Z,27.82
2022-10-18T07:28:21.595Z,27.82
2022-10-18T07:29:21.625Z,27.82
2022-10-18T07:30:21.687Z,27.82
2022-10-18T07:31:21.595Z,27.82
2022-10-18T07:32:21.565Z,27.82
2022-10-18T07:33:21.527Z,27.77
2022-10-18T07:34:21.543Z,27.77
2022-10-18T07:35:21.577Z,27.77
2022-10-18T07:36:21.475Z,27.82
2022-10-18T07:37:21.848Z,27.77
2022-10-18T07:38:21.486Z,27.77
2022-10-18T07:39:21.443Z,27.82
2022-10-18T07:40:21.522Z,27.82
2022-10-18T07:41:21.415Z,27.82
2022-10-18T07:42:21.413Z,27.82
2022-10-18T07:43:21.375Z,27.88
2022-10-18T07:44:21.430Z,27.82
2022-10-18T07:45:21.407Z,27.82
2022-10-18T07:46:21.396Z,27.82
2022-10-18T07:47:21.365Z,27.82
2022-10-18T07:48:21.353Z,27.82
2022-10-18T07:49:21.304Z,27.77
2022-10-18T07:50:21.323Z,27.77
2022-10-18T07:51:21.276Z,27.77
2022-10-18T07:52:21.304Z,27.77
2022-10-18T07:53:21.284Z,27.82
2022-10-18T07:54:21.265Z,27.82
2022-10-18T07:55:21.251Z,27.77
2022-10-18T07:56:21.575Z,27.77
2022-10-18T07:57:21.208Z,27.77
2022-10-18T07:58:21.203Z,27.82
2022-10-18T07:59:21.192Z,27.77
2022-10-18T08:00:21.153Z,27.77
2022-10-18T08:01:21.220Z,27.82
2022-10-18T08:02:21.133Z,27.77
2022-10-18T08:03:21.113Z,27.77
2022-10-18T08:04:21.115Z,27.77
2022-10-18T08:05:21.139Z,27.82
2022-10-18T08:06:21.074Z,27.82
2022-10-18T08:07:21.068Z,27.77
2022-10-18T08:08:21.046Z,27.77
2022-10-18T08:09:21.034Z,27.82
2022-10-18T08:10:21.043Z,27.77
2022-10-18T08:11:21.009Z,27.82
2022-10-18T08:12:20.994Z,27.82
2022-10-18T08:13:20.973Z,27.77
2022-10-18T08:14:21.005Z,27.82
2022-10-18T08:15:21.021Z,27.82
2022-10-18T08:16:20.997Z,27.77
2022-10-18T08:17:20.923Z,27.82
2022-10-18T08:18:20.903Z,27.82
2022-10-18T08:19:20.914Z,27.77
2022-10-18T08:20:30.567Z,28.20
2022-10-18T08:21:21.871Z,27.77
2022-10-18T08:22:20.870Z,27.82
2022-10-18T08:23:20.844Z,27.82
2022-10-18T08:24:20.871Z,26.48
2022-10-18T08:25:20.836Z,27.82
2022-10-18T08:26:20.849Z,28.20
2022-10-18T08:27:20.786Z,28.20
2022-10-18T08:28:20.792Z,27.88
2022-10-18T08:29:24.089Z,28.20
2022-10-18T08:30:21.786Z,28.20
2022-10-18T08:31:20.829Z,27.82
2022-10-18T08:32:20.849Z,28.20
2022-10-18T08:33:20.761Z,28.20
2022-10-18T08:34:20.783Z,28.20
2022-10-18T08:35:20.733Z,27.77
2022-10-18T08:36:20.673Z,28.25
2022-10-18T08:37:20.726Z,27.82
2022-10-18T08:38:20.712Z,27.82
2022-10-18T08:39:20.682Z,28.36
2022-10-18T08:40:20.681Z,28.20
2022-10-18T08:41:20.676Z,28.14
2022-10-18T08:42:20.641Z,28.14
2022-10-18T08:43:21.822Z,28.20
2022-10-18T08:44:20.644Z,28.20
2022-10-18T08:45:37.459Z,28.20
2022-10-18T08:46:21.664Z,28.20
2022-10-18T08:47:20.688Z,28.20
2022-10-18T08:48:20.594Z,28.20
2022-10-18T08:49:20.568Z,28.14
2022-10-18T08:50:20.542Z,28.20
2022-10-18T08:51:20.457Z,28.20
2022-10-18T08:52:20.464Z,28.20
2022-10-18T08:53:20.446Z,28.14
2022-10-18T08:54:20.452Z,28.14
2022-10-18T08:55:20.424Z,28.20
2022-10-18T08:56:20.391Z,28.20
2022-10-18T08:57:20.393Z,28.20
2022-10-18T08:58:20.390Z,28.20
2022-10-18T08:59:24.672Z,28.20
2022-10-18T09:00:21.342Z,28.14
2022-10-18T09:01:20.322Z,28.20
2022-10-18T09:02:20.393Z,28.25
2022-10-18T09:03:20.352Z,28.20
2022-10-18T09:04:20.295Z,28.20
2022-10-18T09:05:20.274Z,28.20
2022-10-18T09:06:22.727Z,28.20
2022-10-18T09:07:20.245Z,28.25
2022-10-18T09:08:20.268Z,28.14
2022-10-18T09:09:20.233Z,28.20
2022-10-18T09:10:20.232Z,28.20
2022-10-18T09:11:20.245Z,28.20
2022-10-18T09:12:20.174Z,28.20
2022-10-18T09:13:20.162Z,28.31
2022-10-18T09:14:20.177Z,28.14
2022-10-18T09:15:20.123Z,28.20
2022-10-18T09:16:20.119Z,28.20
2022-10-18T09:17:20.108Z,28.25
2022-10-18T09:18:20.093Z,28.20
2022-10-18T09:19:20.094Z,28.14
2022-10-18T09:20:20.065Z,28.14
2022-10-18T09:21:20.056Z,28.14
2022-10-18T09:22:20.055Z,28.20
2022-10-18T09:23:20.038Z,28.74
2022-10-18T09:24:20.033Z,28.79
2022-10-18T09:25:20.005Z,28.14
2022-10-18T09:26:19.996Z,28.74
2022-10-18T09:27:19.975Z,28.20
2022-10-18T09:28:19.966Z,28.20
2022-10-18T09:30:19.945Z,28.79
2022-10-18T09:31:19.928Z,28.20
2022-10-18T09:32:19.909Z,28.20
2022-10-18T09:33:19.893Z,28.20
2022-10-18T09:34:19.926Z,28.74
2022-10-18T09:35:19.889Z,28.79
2022-10-18T09:36:19.845Z,28.79
2022-10-18T09:37:19.872Z,28.79
2022-10-18T09:38:19.922Z,28.14
2022-10-18T09:39:19.826Z,28.79
2022-10-18T09:40:19.867Z,28.79
2022-10-18T09:41:19.788Z,28.74
2022-10-18T09:42:19.792Z,28.79
2022-10-18T09:43:19.762Z,28.79
2022-10-18T09:44:19.771Z,28.79
2022-10-18T09:45:19.745Z,28.20
2022-10-18T09:46:19.721Z,28.74
2022-10-18T09:47:19.729Z,28.79
2022-10-18T09:48:19.701Z,28.20
2022-10-18T09:49:19.694Z,28.74
2022-10-18T09:50:19.684Z,28.74
2022-10-18T09:51:19.644Z,28.79
2022-10-18T09:52:19.642Z,28.79
2022-10-18T09:53:19.633Z,28.74
2022-10-18T09:54:19.638Z,28.79
2022-10-18T09:55:19.605Z,28.79
2022-10-18T09:56:19.607Z,28.36
2022-10-18T09:57:19.618Z,28.74
2022-10-18T09:58:19.585Z,28.79
2022-10-18T09:59:19.599Z,28.79
2022-10-18T10:00:19.543Z,28.74
2022-10-18T10:01:19.523Z,28.79
2022-10-18T10:02:19.541Z,28.79
2022-10-18T10:03:19.518Z,28.79
2022-10-18T10:04:19.513Z,28.74
2022-10-18T10:05:19.497Z,28.74
2022-10-18T10:06:19.485Z,28.79
2022-10-18T10:07:19.485Z,28.79
2022-10-18T10:08:19.453Z,28.84
2022-10-18T10:09:19.448Z,28.79
2022-10-18T10:10:19.519Z,28.79
2022-10-18T10:11:19.393Z,28.79
2022-10-18T10:12:19.394Z,28.79
2022-10-18T10:13:19.374Z,28.79
2022-10-18T10:14:19.399Z,28.84
2022-10-18T10:15:19.576Z,28.79
2022-10-18T10:16:19.554Z,28.79
2022-10-18T10:17:19.664Z,28.79
2022-10-18T10:18:19.376Z,28.74
2022-10-18T10:19:19.296Z,28.79
2022-10-18T10:20:19.272Z,28.79
2022-10-18T10:21:19.264Z,28.79
2022-10-18T10:22:19.268Z,28.79
2022-10-18T10:24:19.254Z,28.79
2022-10-18T10:25:19.212Z,28.79
2022-10-18T10:26:19.211Z,28.79
2022-10-18T10:27:19.293Z,28.79
2022-10-18T10:28:19.173Z,28.79
2022-10-18T10:29:33.592Z,28.79
2022-10-18T10:30:20.196Z,28.74
2022-10-18T10:31:19.123Z,28.84
2022-10-18T10:32:19.150Z,28.79
2022-10-18T10:33:26.612Z,28.74
2022-10-18T10:34:27.826Z,28.74
2022-10-18T10:35:33.847Z,28.74
2022-10-18T10:36:26.554Z,28.74
2022-10-18T10:37:26.540Z,28.74
2022-10-18T10:40:00.661Z,28.74
2022-10-18T10:40:21.084Z,28.63
2022-10-18T10:42:09.212Z,29.00
2022-10-18T10:43:18.453Z,28.79
2022-10-18T10:44:07.593Z,28.74
2022-10-18T10:45:06.573Z,28.79
2022-10-18T10:46:06.568Z,29.17
2022-10-18T10:47:06.583Z,29.17
2022-10-18T10:48:06.533Z,28.79
2022-10-18T10:50:07.514Z,28.57
2022-10-18T10:51:06.496Z,29.22
2022-10-18T10:52:26.188Z,28.79
2022-10-18T10:53:07.474Z,28.74
2022-10-18T10:54:06.475Z,29.17
2022-10-18T10:55:30.427Z,28.79
2022-10-18T10:56:07.434Z,28.79
2022-10-18T10:57:06.433Z,28.79
2022-10-18T10:58:06.394Z,28.74
2022-10-18T10:59:06.461Z,28.79
2022-10-18T11:00:06.367Z,28.79
2022-10-18T11:01:09.113Z,28.79
2022-10-18T11:02:06.351Z,29.17
2022-10-18T11:03:27.389Z,29.27
2022-10-18T11:04:07.388Z,28.84
2022-10-18T11:05:06.338Z,29.17
2022-10-18T11:06:06.283Z,29.17
2022-10-18T11:07:06.283Z,29.22
2022-10-18T11:08:06.270Z,29.22
2022-10-18T11:09:06.276Z,29.11
2022-10-18T11:10:06.246Z,28.79
2022-10-18T11:11:06.225Z,28.74
2022-10-18T11:12:06.226Z,28.79
2022-10-18T11:13:06.205Z,29.17
2022-10-18T11:14:24.779Z,28.74
2022-10-18T11:15:07.164Z,28.84
2022-10-18T11:16:06.234Z,28.84
2022-10-18T11:17:08.126Z,29.17
2022-10-18T11:18:06.153Z,29.17
2022-10-18T11:19:06.142Z,29.17
2022-10-18T11:20:06.118Z,28.79
2022-10-18T11:21:06.093Z,29.17
2022-10-18T11:22:06.096Z,28.79
2022-10-18T11:23:06.072Z,29.17
2022-10-18T11:24:06.089Z,29.17
2022-10-18T11:25:06.054Z,29.17
2022-10-18T11:26:06.024Z,29.17
2022-10-18T11:27:06.013Z,28.79
2022-10-18T11:28:06.012Z,28.74
2022-10-18T11:29:06.078Z,29.22
2022-10-18T11:30:05.994Z,29.17
2022-10-18T11:31:05.954Z,28.79
2022-10-18T11:32:05.947Z,28.84
2022-10-18T11:33:05.925Z,29.17
2022-10-18T11:34:10.136Z,29.17
2022-10-18T11:35:05.903Z,29.22
2022-10-18T11:36:05.876Z,28.74
2022-10-18T11:37:28.177Z,29.11
2022-10-18T11:39:16.815Z,29.17
2022-10-18T11:40:16.795Z,29.22
2022-10-18T11:41:16.775Z,29.17
2022-10-18T11:42:16.833Z,28.74
2022-10-18T11:43:16.757Z,29.17
2022-10-18T11:44:16.756Z,29.11
2022-10-18T11:45:16.745Z,29.17
2022-10-18T11:46:16.793Z,29.17
2022-10-18T11:47:16.716Z,29.22
2022-10-18T11:48:16.711Z,29.17
2022-10-18T11:49:16.687Z,29.22
2022-10-18T11:50:16.666Z,29.17
2022-10-18T11:51:16.677Z,28.79
2022-10-18T11:52:16.646Z,29.17
2022-10-18T11:53:16.624Z,29.17
2022-10-18T11:54:16.628Z,29.17
2022-10-18T11:55:16.616Z,29.17
2022-10-18T11:56:16.596Z,29.17
2022-10-18T11:57:16.605Z,29.17
2022-10-18T11:58:16.567Z,29.17
2022-10-18T11:59:16.620Z,29.17
2022-10-18T12:00:16.603Z,29.17
2022-10-18T12:01:16.521Z,29.22
2022-10-18T12:02:16.653Z,29.17
2022-10-18T12:03:16.495Z,29.17
2022-10-18T12:04:16.504Z,29.17
2022-10-18T12:05:23.530Z,29.17
2022-10-18T12:06:17.460Z,29.17
2022-10-18T12:07:19.818Z,29.22
2022-10-18T12:08:17.437Z,29.22
2022-10-18T12:09:16.447Z,29.17
2022-10-18T12:10:22.102Z,29.22
2022-10-18T12:11:17.464Z,29.22
2022-10-18T12:12:16.391Z,29.17
2022-10-18T12:13:16.381Z,29.22
2022-10-18T12:14:16.373Z,28.79
2022-10-18T12:15:16.336Z,29.17
2022-10-18T12:16:16.330Z,29.17
2022-10-18T12:17:43.975Z,29.11
2022-10-18T12:18:17.307Z,29.11
2022-10-18T12:19:16.326Z,29.17
2022-10-18T12:20:16.277Z,29.17
2022-10-18T12:21:16.257Z,29.17
2022-10-18T12:22:16.264Z,29.22
2022-10-18T12:23:16.238Z,29.17
2022-10-18T12:24:16.241Z,29.17
2022-10-18T12:25:16.207Z,29.22
2022-10-18T12:26:16.196Z,29.17
2022-10-18T12:27:16.188Z,29.17
2022-10-18T12:28:16.178Z,29.17
2022-10-18T12:29:16.166Z,29.17
2022-10-18T12:30:16.147Z,29.22
2022-10-18T12:31:16.126Z,29.17
2022-10-18T12:32:16.116Z,29.22
2022-10-18T12:33:27.831Z,29.17
2022-10-18T12:34:17.118Z,29.17
2022-10-18T12:35:16.087Z,29.17
2022-10-18T12:36:16.083Z,29.22
2022-10-18T12:37:16.048Z,29.17
2022-10-18T12:38:16.045Z,29.22
2022-10-18T12:39:16.037Z,29.17
2022-10-18T12:40:18.838Z,28.74
2022-10-18T12:41:17.015Z,29.17
2022-10-18T12:42:16.073Z,29.17
2022-10-18T12:43:15.978Z,29.22
2022-10-18T12:44:16.088Z,29.22
2022-10-18T12:45:15.997Z,29.17
2022-10-18T12:46:15.929Z,29.17
2022-10-18T12:47:15.937Z,29.17
2022-10-18T12:48:15.908Z,29.22
2022-10-18T12:49:16.032Z,29.17
2022-10-18T12:50:15.888Z,29.17
2022-10-18T12:51:15.875Z,29.22
2022-10-18T12:52:15.857Z,29.17
2022-10-18T12:53:15.850Z,29.17
2022-10-18T12:54:15.878Z,29.17
2022-10-18T12:55:16.899Z,29.17
2022-10-18T12:56:15.805Z,29.17
2022-10-18T12:57:15.797Z,29.17
2022-10-18T12:58:15.776Z,29.17
2022-10-18T12:59:15.800Z,29.22
2022-10-18T13:00:15.749Z,29.17